Airfield :
LOGIN :

Register | Disclaimer

   EN    FR    IT 

 










Legend :    VFR   Marginal VFR   IFR   Intensive IFR   Very Intensive IFR
Visi :
Ceiling :
>= 8 km
>= 3000ft
5 to 8 km
1000 to 3000 ft
1500m to 5 km
500 to 1000 ft
800 to 1500m
200 to 500 ft
< 800m
< 200 ft
Symbols :   Thunderstorms  Fog  Heavy snow  Heavy precipitations  Wind > 20 kt
SIGMETs :     Misc.  Thunderstorms  Icing  Turbulence  Mountain Waves  Volcanic Ashes






- Airport Elevation : 1234 ft
- IATA code : LUX


ELLX - Luxembourg Findel

CURRENT METAR :
  • 110250Z 19009KT 9999 -RA BKN042 02/M01 Q1014 NOSIG

EXPIRED METARs :
  • 110220Z 18008KT 9999 BKN042 02/M01 Q1015 NOSIG
  • 110150Z AUTO 18009KT 9999 -DZ OVC037/// 02/M01 Q1015 NOSIG
  • 110120Z 18009KT 9999 BKN040 02/M01 Q1016 NOSIG
  • 110050Z 18009KT 9999 BKN043 02/M01 Q1016 NOSIG
  • 110020Z 18008KT 9999 SCT045 BKN085 02/M01 Q1017 NOSIG

TAF TAF ELLX
Valid from the 11 at 00:00 until the 12 at 06:00 UTC


102300Z 1100/1206 18008KT CAVOK
TEMPO 1102/1108 2000 RASN BR BKN003
TEMPO 1108/1118 4000 RA BKN007
BECMG 1123/1206 1500 SN OVC002
ATIS : +352 4798 27300
Met : +352 4798 27010 / 27050



MET'MAP, your aeronautical weather chart ! - Copyright ORBIFLY December 2007 - Disclaimer

ORBIFLY MET'MAP TEAM :

Programming & Development : Alexandra Zaïnal
Concept & original design : Baudouin d'Aumeries
Assistance for programming : Marc-Olivier Méhu
Technical & hardware support : Manuel Goepfert

Contact : metmap@orbifly.com




SOURCES & CREDITS :

   NOAA